Time;durP1;ratioP1;P1;durP2;ratioP2;P2;SDS_P1;SDS_P2;PMS_P1;PMS_P2;Temp;Humidity;BMP_temperature;BMP_pressure;BME280_temperature;BME280_humidity;BME280_pressure;Samples;Min_cycle;Max_cycle;Signal;HPM_P1;HPM_P2
2022/02/28 00:01:38;;;;;;;;;16.75;14.75;;;;;8.44;64.67;101223.37;146609;564;46021;-70
2022/02/28 00:04:30;;;;;;;;;16.75;11.50;;;;;8.47;64.37;101223.56;146606;612;46016;-70
2022/02/28 00:11:40;;;;;;;;;11.00;9.00;;;;;8.52;64.10;101224.75;146603;596;46012;-70
2022/02/28 00:14:32;;;;;;;;;8.50;8.50;;;;;8.45;64.61;101221.69;146604;575;46021;-71
2022/02/28 00:17:34;;;;;;;;;12.50;11.25;;;;;8.40;64.78;101221.34;146612;607;46016;-71
2022/02/28 00:20:26;;;;;;;;;13.50;13.50;;;;;8.31;66.18;101226.75;146608;589;46020;-73
2022/02/28 00:23:18;;;;;;;;;13.00;12.50;;;;;8.25;66.09;101209.94;146604;630;46017;-73
2022/02/28 00:26:11;;;;;;;;;12.75;10.25;;;;;8.22;66.33;101218.38;146608;587;46010;-74
2022/02/28 00:29:03;;;;;;;;;14.50;13.75;;;;;8.21;66.48;101210.53;146608;604;46017;-73
2022/02/28 00:31:55;;;;;;;;;10.25;10.00;;;;;8.18;66.23;101203.47;146612;613;46010;-73
2022/02/28 00:34:47;;;;;;;;;11.75;11.50;;;;;7.17;66.12;101037.37;146605;674;46012;-73
2022/02/28 00:37:41;;;;;;;;;13.00;11.75;;;;;8.10;65.34;101199.47;146609;595;46012;-73
2022/02/28 00:40:33;;;;;;;;;14.25;11.25;;;;;8.11;65.72;101198.66;146607;645;46016;-73
2022/02/28 00:43:25;;;;;;;;;17.50;14.50;;;;;8.15;66.03;101198.06;146603;572;45021;-73
2022/02/28 00:46:19;;;;;;;;;12.75;11.50;;;;;8.19;65.17;101187.16;146604;610;46035;-73
2022/02/28 00:49:11;;;;;;;;;14.25;12.00;;;;;8.30;64.97;101196.53;146607;673;46020;-73
2022/02/28 00:52:03;;;;;;;;;16.25;14.50;;;;;8.40;64.59;101194.62;146604;576;46012;-72
2022/02/28 00:54:55;;;;;;;;;16.75;15.75;;;;;7.47;65.17;101018.72;146604;720;47010;-75
2022/02/28 00:57:47;;;;;;;;;11.75;11.75;;;;;8.48;65.06;101198.63;146603;593;46916;-74
2022/02/28 01:00:40;;;;;;;;;24.50;20.00;;;;;8.52;65.10;101193.75;146608;606;46020;-73
2022/02/28 01:03:33;;;;;;;;;16.75;15.25;;;;;8.59;64.61;101191.56;146606;583;46016;-73
2022/02/28 01:06:25;;;;;;;;;13.50;13.25;;;;;8.62;64.74;101189.19;146608;590;46021;-73
2022/02/28 01:09:17;;;;;;;;;16.00;13.00;;;;;8.62;64.46;101184.91;146601;608;47012;-71
2022/02/28 01:12:10;;;;;;;;;14.50;13.75;;;;;8.56;64.64;101182.81;146602;569;46916;-73
2022/02/28 01:15:01;;;;;;;;;10.75;10.75;;;;;8.53;64.79;101171.38;146607;572;46035;-72
2022/02/28 01:17:55;;;;;;;;;12.00;11.50;;;;;8.61;64.85;101179.66;146611;569;46020;-72
2022/02/28 01:20:49;;;;;;;;;10.50;9.75;;;;;7.87;64.23;101040.37;146606;642;46017;-73
2022/02/28 01:23:41;;;;;;;;;10.50;7.25;;;;;8.72;64.49;101186.41;146616;618;46010;-73
2022/02/28 01:26:34;;;;;;;;;27.50;24.50;;;;;8.75;64.81;101178.84;146609;584;46916;-73
2022/02/28 01:29:26;;;;;;;;;15.50;12.25;;;;;8.69;65.14;101181.97;146609;579;46021;-72
2022/02/28 01:32:19;;;;;;;;;17.00;14.75;;;;;8.13;65.26;101098.94;146605;566;46016;-73
2022/02/28 01:35:14;;;;;;;;;15.50;13.50;;;;;8.50;64.64;101187.59;146610;614;46020;-73
2022/02/28 01:38:06;;;;;;;;;21.25;20.25;;;;;8.50;65.47;101187.59;146606;584;46017;-73
2022/02/28 01:40:58;;;;;;;;;22.50;18.50;;;;;8.49;64.87;101174.56;146603;634;46010;-73
2022/02/28 01:43:50;;;;;;;;;22.00;19.50;;;;;8.54;65.37;101178.34;146606;608;46017;-72
2022/02/28 01:46:44;;;;;;;;;23.50;20.75;;;;;8.54;64.83;101173.19;146606;603;47010;-73
2022/02/28 01:49:36;;;;;;;;;13.00;10.00;;;;;8.59;64.58;101178.66;146606;596;46014;-72
2022/02/28 01:52:29;;;;;;;;;10.00;8.00;;;;;8.62;64.12;101176.25;146608;571;46010;-75
2022/02/28 01:55:23;;;;;;;;;8.00;7.00;;;;;8.60;63.80;101178.75;146612;600;46915;-71
2022/02/28 01:58:15;;;;;;;;;9.25;9.25;;;;;8.61;64.59;101171.91;146616;593;46021;-73
2022/02/28 02:01:09;;;;;;;;;12.50;12.50;;;;;8.61;64.37;101174.47;146610;625;46916;-73
2022/02/28 02:04:01;;;;;;;;;9.25;8.25;;;;;8.59;63.54;101182.13;146608;600;46010;-73
2022/02/28 02:06:53;;;;;;;;;9.50;8.00;;;;;8.58;63.19;101182.94;146609;593;47012;-73
2022/02/28 02:09:46;;;;;;;;;10.00;9.00;;;;;8.60;63.66;101185.59;146603;668;46020;-75
2022/02/28 02:12:39;;;;;;;;;11.00;10.00;;;;;8.62;63.56;101184.00;146612;575;46012;-73
2022/02/28 02:15:32;;;;;;;;;12.50;10.00;;;;;8.63;63.09;101173.78;146609;586;46010;-74
2022/02/28 02:18:25;;;;;;;;;10.75;10.25;;;;;8.65;63.52;101174.78;146606;599;46016;-72
2022/02/28 02:21:17;;;;;;;;;12.75;11.00;;;;;8.70;63.35;101173.41;146609;680;46021;-73
2022/02/28 02:24:10;;;;;;;;;16.25;14.25;;;;;8.74;63.14;101182.25;146605;569;46016;-71
2022/02/28 02:27:02;;;;;;;;;11.75;10.50;;;;;8.69;62.90;101176.78;146609;589;46020;-74
2022/02/28 02:29:55;;;;;;;;;10.50;9.25;;;;;8.70;63.01;101178.56;146606;573;46014;-72
2022/02/28 02:32:48;;;;;;;;;18.25;18.25;;;;;8.71;62.98;101176.88;146615;569;46020;-73
2022/02/28 02:35:39;;;;;;;;;14.75;13.75;;;;;8.72;62.82;101182.16;146606;568;46033;-72
2022/02/28 02:38:35;;;;;;;;;11.50;11.50;;;;;8.71;63.29;101182.94;146601;622;46030;-72
2022/02/28 02:41:27;;;;;;;;;13.50;13.50;;;;;8.73;63.46;101190.81;146605;631;46012;-71
2022/02/28 02:44:19;;;;;;;;;20.00;15.75;;;;;8.70;63.81;101188.91;146608;671;46010;-72
2022/02/28 02:47:11;;;;;;;;;22.75;20.50;;;;;8.65;63.43;101197.16;146606;614;46016;-71
2022/02/28 02:50:03;;;;;;;;;15.00;13.25;;;;;8.64;64.06;101195.38;146609;684;46021;-71
2022/02/28 02:52:55;;;;;;;;;9.75;9.50;;;;;8.62;63.53;101197.84;146606;595;46016;-71
2022/02/28 02:55:49;;;;;;;;;8.00;7.50;;;;;7.57;63.24;101018.53;146617;573;46020;-72
2022/02/28 02:58:41;;;;;;;;;9.00;8.00;;;;;8.61;62.81;101206.37;146611;564;47013;-71
2022/02/28 03:01:34;;;;;;;;;8.00;6.75;;;;;8.65;62.89;101199.72;146612;583;48010;-75
2022/02/28 03:04:26;;;;;;;;;9.00;7.75;;;;;8.68;62.49;101193.06;146611;599;46012;-75
2022/02/28 03:07:23;;;;;;;;;10.00;9.00;;;;;8.73;62.72;101193.37;146610;594;46010;-73
2022/02/28 03:10:15;;;;;;;;;9.50;8.50;;;;;8.76;62.78;101189.31;146614;704;46016;-72
2022/02/28 03:13:07;;;;;;;;;9.50;8.75;;;;;8.71;64.17;101182.94;146618;591;46020;-73
2022/02/28 03:16:00;;;;;;;;;13.00;10.00;;;;;8.61;64.76;101182.25;146614;563;46012;-72
2022/02/28 03:27:35;;;;;;;;;11.50;11.00;;;;;8.55;64.00;101185.31;146611;603;46013;-71
2022/02/28 03:30:27;;;;;;;;;11.75;11.75;;;;;8.54;64.91;101186.09;146603;693;46014;-71
2022/02/28 03:33:44;;;;;;;;;11.25;10.25;;;;;8.49;64.11;101196.13;146608;618;46020;-71
2022/02/28 03:36:37;;;;;;;;;11.75;10.75;;;;;8.49;64.32;101200.41;146606;601;46012;-71
2022/02/28 03:47:28;;;;;;;;;12.75;10.25;;;;;8.41;64.51;101198.97;146617;588;46010;-70
2022/02/28 03:50:24;;;;;;;;;9.25;8.75;;;;;8.42;63.96;101196.50;146606;639;46017;-75
2022/02/28 03:53:16;;;;;;;;;9.00;9.00;;;;;8.43;64.96;101198.28;146616;578;46010;-75
2022/02/28 03:56:08;;;;;;;;;8.50;8.00;;;;;8.40;64.21;101200.66;146609;649;46914;-74
2022/02/28 03:59:02;;;;;;;;;10.75;10.75;;;;;8.34;64.40;101192.47;146615;589;46021;-74
2022/02/28 04:01:54;;;;;;;;;11.50;10.75;;;;;8.36;65.21;101195.19;146604;773;46012;-73
2022/02/28 04:04:46;;;;;;;;;8.25;8.00;;;;;8.32;64.36;101194.97;146606;595;46014;-73
2022/02/28 04:07:38;;;;;;;;;8.00;8.00;;;;;8.31;65.08;101202.59;146610;569;46016;-73
2022/02/28 04:10:30;;;;;;;;;11.00;7.25;;;;;8.26;64.88;101196.25;146603;610;46010;-73
2022/02/28 04:13:22;;;;;;;;;7.25;6.25;;;;;8.22;64.72;101197.69;146609;606;46914;-74
2022/02/28 04:16:14;;;;;;;;;12.50;9.00;;;;;8.20;64.60;101199.31;146615;739;47010;-72
2022/02/28 04:19:07;;;;;;;;;12.25;10.00;;;;;8.20;65.31;101206.16;146612;590;46013;-72
2022/02/28 04:21:59;;;;;;;;;10.75;8.00;;;;;8.18;65.40;101205.16;146608;586;46014;-72
2022/02/28 04:24:51;;;;;;;;;9.00;8.00;;;;;8.17;65.46;101213.69;146610;564;47012;-72
2022/02/28 04:27:43;;;;;;;;;10.50;8.25;;;;;8.13;65.75;101219.44;146616;618;46010;-73
2022/02/28 04:30:35;;;;;;;;;10.75;9.50;;;;;8.10;65.30;101214.97;146613;613;46012;-73
2022/02/28 04:33:27;;;;;;;;;11.50;10.50;;;;;8.13;65.07;101228.09;146615;594;46010;-76
2022/02/28 04:36:19;;;;;;;;;12.75;11.75;;;;;8.13;65.47;101222.00;146604;652;46914;-73
2022/02/28 04:39:11;;;;;;;;;12.00;9.75;;;;;8.11;65.60;101227.09;146604;590;46010;-73
2022/02/28 04:42:03;;;;;;;;;9.50;9.50;;;;;8.07;65.21;101217.34;146610;605;47013;-72
2022/02/28 04:44:55;;;;;;;;;34.50;31.25;;;;;8.10;65.22;101222.72;146614;571;47010;-72
2022/02/28 04:47:47;;;;;;;;;14.50;12.75;;;;;7.55;65.15;101120.78;146605;587;46021;-72
2022/02/28 04:50:39;;;;;;;;;10.50;10.50;;;;;8.18;65.34;101212.91;146612;569;46021;-72
2022/02/28 04:53:31;;;;;;;;;11.00;10.25;;;;;8.19;65.44;101225.91;146604;569;46029;-72
2022/02/28 04:56:23;;;;;;;;;11.00;10.00;;;;;8.22;65.80;101230.37;146609;641;47010;-72
2022/02/28 05:00:07;;;;;;;;;9.75;8.50;;;;;8.20;64.59;101221.66;146606;660;46017;-72
2022/02/28 05:02:59;;;;;;;;;7.00;7.00;;;;;8.16;65.32;101214.47;146615;564;46010;-74
2022/02/28 05:05:52;;;;;;;;;7.00;7.00;;;;;8.16;64.52;101228.31;146613;598;45915;-74
2022/02/28 05:08:43;;;;;;;;;7.00;7.00;;;;;8.13;64.77;101235.84;146610;563;46010;-73
2022/02/28 05:11:36;;;;;;;;;9.25;5.50;;;;;8.07;65.15;101231.16;146611;651;46914;-73
2022/02/28 05:14:28;;;;;;;;;8.75;7.25;;;;;8.02;65.23;101239.34;146616;599;46020;-73
2022/02/28 05:17:21;;;;;;;;;9.25;9.00;;;;;7.99;64.76;101245.19;146610;574;46016;-74
2022/02/28 05:20:13;;;;;;;;;11.25;9.00;;;;;7.99;64.58;101244.31;146614;609;47010;-74
2022/02/28 05:23:05;;;;;;;;;10.50;10.50;;;;;8.06;64.18;101249.09;146611;576;46016;-72
2022/02/28 05:25:57;;;;;;;;;14.25;10.25;;;;;8.11;64.66;101250.34;146610;633;46030;-72
2022/02/28 05:28:49;;;;;;;;;15.00;11.75;;;;;8.14;64.53;101252.25;146605;576;46034;-72
2022/02/28 05:31:42;;;;;;;;;12.50;10.50;;;;;8.22;64.63;101269.12;146605;612;47010;-72
2022/02/28 05:34:34;;;;;;;;;10.50;9.50;;;;;8.23;64.27;101271.84;146605;569;46013;-73
2022/02/28 05:37:26;;;;;;;;;11.75;11.00;;;;;8.27;64.38;101276.44;146604;566;46010;-74
2022/02/28 05:40:20;;;;;;;;;10.75;7.75;;;;;8.29;63.99;101272.28;146603;640;46013;-73
2022/02/28 05:43:12;;;;;;;;;12.00;10.25;;;;;8.31;64.46;101282.69;146616;630;46010;-73
2022/02/28 05:46:04;;;;;;;;;10.75;9.00;;;;;8.29;64.22;101287.78;146605;661;46016;-73
2022/02/28 05:48:56;;;;;;;;;9.25;9.25;;;;;8.28;64.70;101285.97;146614;748;47010;-73
2022/02/28 05:51:48;;;;;;;;;10.00;9.00;;;;;8.24;64.02;101285.66;146611;604;46016;-73
2022/02/28 05:54:40;;;;;;;;;11.50;11.00;;;;;8.24;64.42;101290.81;146615;616;46020;-73
2022/02/28 05:57:37;;;;;;;;;16.50;15.25;;;;;8.27;63.92;101288.44;146605;581;46016;-73
2022/02/28 06:00:29;;;;;;;;;19.75;16.00;;;;;8.31;64.03;101295.63;146609;603;46020;-72
2022/02/28 06:03:21;;;;;;;;;15.25;15.25;;;;;8.34;64.45;101285.50;146601;582;47012;-73
2022/02/28 06:06:13;;;;;;;;;12.00;12.00;;;;;8.37;64.18;101290.87;146603;604;46030;-73
2022/02/28 06:09:05;;;;;;;;;17.25;14.00;;;;;8.40;64.09;101291.13;146603;619;46016;-73
2022/02/28 06:11:58;;;;;;;;;20.75;17.25;;;;;8.47;63.65;101289.84;146609;635;45023;-72
2022/02/28 06:14:50;;;;;;;;;18.25;17.00;;;;;8.52;64.50;101288.47;146602;663;47012;-72
2022/02/28 06:17:42;;;;;;;;;20.00;18.75;;;;;8.56;63.45;101287.91;146607;614;46010;-72
2022/02/28 06:20:34;;;;;;;;;23.00;21.50;;;;;8.59;63.67;101285.50;146604;612;46012;-72
2022/02/28 06:23:26;;;;;;;;;19.50;18.25;;;;;8.61;63.77;101276.19;146608;585;46010;-73
2022/02/28 06:26:19;;;;;;;;;29.00;28.25;;;;;8.61;63.76;101286.53;146605;564;46013;-72
2022/02/28 06:29:11;;;;;;;;;31.50;27.75;;;;;8.59;64.63;101288.09;146602;613;46020;-72
2022/02/28 06:32:04;;;;;;;;;16.50;14.00;;;;;8.57;64.14;101287.13;146603;567;46029;-72
2022/02/28 06:34:56;;;;;;;;;19.75;17.00;;;;;8.58;63.98;101288.91;146601;611;46010;-72
2022/02/28 06:37:48;;;;;;;;;17.50;15.00;;;;;8.66;63.67;101281.66;146602;590;46016;-72
2022/02/28 06:40:40;;;;;;;;;21.75;20.00;;;;;8.81;63.64;101290.44;146609;589;46020;-74
2022/02/28 06:43:32;;;;;;;;;16.50;13.75;;;;;8.88;63.08;101282.31;146603;563;46012;-71
2022/02/28 06:46:24;;;;;;;;;19.75;19.75;;;;;8.95;62.95;101287.09;146607;689;46020;-72
2022/02/28 06:49:16;;;;;;;;;23.25;20.50;;;;;9.12;62.33;101298.56;146604;609;46012;-73
2022/02/28 06:52:08;;;;;;;;;25.25;23.75;;;;;9.28;63.12;101290.09;146607;571;46010;-73
2022/02/28 06:55:01;;;;;;;;;31.50;27.75;;;;;9.46;62.71;101300.78;146604;645;46017;-73
2022/02/28 06:57:52;;;;;;;;;56.00;43.50;;;;;9.58;61.13;101301.56;146606;695;47010;-72
2022/02/28 07:00:45;;;;;;;;;7.75;7.00;;;;;9.65;59.42;101300.25;146607;584;46016;-73
2022/02/28 07:03:37;;;;;;;;;16.00;14.25;;;;;9.73;59.07;101303.34;146605;580;46021;-72
2022/02/28 07:06:50;;;;;;;;;56.00;45.50;;;;;9.77;60.20;101308.81;146606;572;46016;-72
2022/02/28 07:09:42;;;;;;;;;54.75;43.00;;;;;9.81;60.77;101308.22;146606;612;47011;-72
2022/02/28 07:12:35;;;;;;;;;30.00;26.00;;;;;9.80;59.82;101305.53;146605;632;46016;-72
2022/02/28 07:15:26;;;;;;;;;26.00;22.50;;;;;9.82;59.46;101315.19;146610;612;45020;-72
2022/02/28 07:18:19;;;;;;;;;0.50;0.50;;;;;9.79;58.30;101298.56;146605;574;47014;-72
2022/02/28 07:21:11;;;;;;;;;4.00;4.00;;;;;9.82;58.74;101316.88;146617;595;46020;-72
2022/02/28 07:24:03;;;;;;;;;5.75;5.75;;;;;9.82;58.04;101307.41;146613;664;47012;-72
2022/02/28 07:26:55;;;;;;;;;5.00;5.00;;;;;9.82;57.97;101314.31;146615;655;46021;-72
2022/02/28 07:29:48;;;;;;;;;8.75;7.50;;;;;9.80;57.73;101310.72;146609;580;46012;-72
2022/02/28 07:32:39;;;;;;;;;6.25;5.25;;;;;9.78;57.68;101314.87;146604;564;46020;-72
2022/02/28 07:35:33;;;;;;;;;6.25;4.75;;;;;9.73;57.46;101319.78;146609;585;47012;-73
2022/02/28 07:38:24;;;;;;;;;9.00;7.25;;;;;9.67;58.18;101315.09;146616;602;46010;-72
2022/02/28 07:41:17;;;;;;;;;9.50;9.00;;;;;9.62;58.03;101326.84;146606;592;46914;-73
2022/02/28 07:44:10;;;;;;;;;9.75;7.75;;;;;9.56;57.87;101323.84;146616;576;46020;-74
2022/02/28 07:47:02;;;;;;;;;11.00;10.50;;;;;9.51;58.47;101322.69;146614;621;46035;-72
2022/02/28 07:49:54;;;;;;;;;10.50;10.00;;;;;9.46;58.56;101335.31;146607;579;46010;-72
2022/02/28 07:52:46;;;;;;;;;10.00;9.00;;;;;9.39;59.00;101329.66;146606;576;46016;-73
2022/02/28 07:55:38;;;;;;;;;7.00;7.00;;;;;9.33;59.33;101340.50;146611;628;46010;-72
2022/02/28 07:58:30;;;;;;;;;8.00;7.00;;;;;9.27;58.85;101340.09;146611;607;47012;-70
2022/02/28 08:01:22;;;;;;;;;12.25;10.00;;;;;9.25;59.34;101344.25;146602;572;46020;-72
2022/02/28 08:04:15;;;;;;;;;11.25;9.50;;;;;9.25;59.45;101345.16;146605;604;46033;-72
2022/02/28 08:07:07;;;;;;;;;10.00;10.00;;;;;9.24;59.15;101343.34;146615;605;46020;-71
2022/02/28 08:09:59;;;;;;;;;17.50;16.00;;;;;9.25;59.36;101352.94;146602;571;46035;-71
2022/02/28 08:12:51;;;;;;;;;8.25;7.00;;;;;9.27;59.91;101353.03;146609;567;46010;-71
2022/02/28 08:15:44;;;;;;;;;6.75;6.00;;;;;9.24;59.46;101352.81;146609;618;47014;-71
2022/02/28 08:18:35;;;;;;;;;11.00;8.25;;;;;9.28;59.51;101351.31;146616;598;46020;-74
2022/02/28 08:21:28;;;;;;;;;9.25;6.75;;;;;9.32;59.80;101361.09;146612;613;46012;-73
2022/02/28 08:24:20;;;;;;;;;9.25;7.75;;;;;9.36;59.08;101366.56;146616;670;46021;-70
2022/02/28 08:27:13;;;;;;;;;9.00;8.50;;;;;9.40;59.41;101360.78;146608;611;47012;-71
2022/02/28 08:30:05;;;;;;;;;8.50;7.50;;;;;9.47;59.23;101364.72;146604;593;46010;-71
2022/02/28 08:32:57;;;;;;;;;12.00;10.00;;;;;9.53;59.20;101359.00;146612;657;46014;-73
2022/02/28 08:35:49;;;;;;;;;10.75;10.25;;;;;9.64;58.99;101370.97;146608;643;46020;-70
2022/02/28 08:38:41;;;;;;;;;10.50;10.50;;;;;9.78;59.06;101375.38;146605;581;46914;-70
2022/02/28 08:41:33;;;;;;;;;7.00;7.00;;;;;9.93;57.03;101367.66;146610;590;46010;-70
2022/02/28 08:44:25;;;;;;;;;8.00;6.00;;;;;10.06;56.88;101362.50;146612;575;46014;-69
2022/02/28 08:47:17;;;;;;;;;11.75;10.50;;;;;10.13;55.01;101362.06;146616;591;46021;-69
2022/02/28 08:50:16;;;;;;;;;15.75;14.25;;;;;10.17;54.40;101374.41;146605;569;46012;-70
2022/02/28 08:53:08;;;;;;;;;8.50;7.50;;;;;10.21;55.57;101369.41;146610;608;46010;-69
2022/02/28 08:56:00;;;;;;;;;8.50;6.75;;;;;10.21;54.19;101367.72;146605;586;47012;-69
2022/02/28 08:58:52;;;;;;;;;32.50;29.75;;;;;10.21;54.77;101366.81;146603;587;46020;-68
2022/02/28 09:01:44;;;;;;;;;24.75;23.00;;;;;10.24;55.47;101372.19;146601;579;47012;-71
2022/02/28 09:04:36;;;;;;;;;13.00;13.00;;;;;10.30;54.23;101383.00;146605;563;46020;-69
2022/02/28 09:07:29;;;;;;;;;16.25;15.50;;;;;10.30;54.17;101378.69;146605;575;47013;-70
2022/02/28 09:10:21;;;;;;;;;10.50;9.25;;;;;10.33;54.63;101367.62;146607;673;46010;-69
2022/02/28 09:13:13;;;;;;;;;12.00;11.50;;;;;10.36;54.94;101367.81;146611;694;46016;-71
2022/02/28 09:16:06;;;;;;;;;31.00;27.50;;;;;10.39;59.35;101368.91;146607;564;46021;-68
2022/02/28 09:18:59;;;;;;;;;48.25;39.75;;;;;10.42;60.28;101369.91;146605;599;46036;-69
2022/02/28 09:21:53;;;;;;;;;38.50;33.00;;;;;10.44;59.93;101379.56;146609;670;46021;-69
2022/02/28 09:24:45;;;;;;;;;46.00;36.00;;;;;10.48;60.41;101381.53;146604;569;46012;-69
2022/02/28 09:27:38;;;;;;;;;33.50;31.00;;;;;10.54;60.30;101379.34;146602;571;46020;-68
2022/02/28 09:30:30;;;;;;;;;38.50;32.75;;;;;10.60;60.03;101381.41;146604;583;46013;-69
2022/02/28 09:33:23;;;;;;;;;39.00;32.00;;;;;10.63;59.93;101377.31;146607;634;46020;-68
2022/02/28 09:36:15;;;;;;;;;23.25;21.00;;;;;10.56;59.58;101372.56;146605;569;46016;-68
2022/02/28 09:39:07;;;;;;;;;22.25;21.75;;;;;10.56;59.98;101376.81;146607;604;47014;-71
2022/02/28 09:42:00;;;;;;;;;27.00;21.25;;;;;10.50;59.97;101374.78;146605;577;46012;-68
2022/02/28 09:44:52;;;;;;;;;21.00;19.50;;;;;10.52;59.65;101367.97;146606;572;47010;-68
2022/02/28 09:47:45;;;;;;;;;20.75;17.75;;;;;10.58;59.81;101381.31;146605;569;46034;-68
2022/02/28 09:50:37;;;;;;;;;29.00;26.00;;;;;10.60;60.36;101381.41;146607;652;46010;-69
2022/02/28 09:53:29;;;;;;;;;27.25;24.50;;;;;10.53;61.38;101381.81;146604;636;46012;-68
2022/02/28 09:56:23;;;;;;;;;25.75;24.25;;;;;10.46;61.26;101377.94;146602;579;46010;-68
2022/02/28 09:59:16;;;;;;;;;28.00;26.50;;;;;10.50;61.36;101384.22;146604;589;46013;-69
2022/02/28 10:02:09;;;;;;;;;32.25;29.75;;;;;10.54;61.95;101381.03;146610;604;47014;-69
2022/02/28 10:05:01;;;;;;;;;39.00;32.75;;;;;10.62;62.15;101382.37;146604;579;46016;-69
2022/02/28 10:07:58;;;;;;;;;37.00;32.25;;;;;10.59;62.80;101383.13;146608;580;46021;-69
2022/02/28 10:10:51;;;;;;;;;28.75;27.00;;;;;10.47;63.50;101389.25;146603;592;46016;-70
2022/02/28 10:13:42;;;;;;;;;24.00;21.00;;;;;10.36;63.59;101383.38;146606;595;46010;-69
2022/02/28 10:16:58;;;;;;;;;26.00;19.25;;;;;10.20;64.03;101389.25;146603;610;47012;-69
2022/02/28 10:19:51;;;;;;;;;23.00;22.25;;;;;10.14;64.00;101387.16;146609;573;46020;-70
2022/02/28 10:22:43;;;;;;;;;24.50;23.25;;;;;10.09;64.77;101385.09;146604;586;46017;-69
2022/02/28 10:25:41;;;;;;;;;23.50;21.25;;;;;10.04;64.44;101390.00;146601;586;46020;-69
2022/02/28 10:28:33;;;;;;;;;20.25;18.25;;;;;10.04;64.34;101386.50;146602;595;46016;-68
2022/02/28 10:31:25;;;;;;;;;23.75;22.00;;;;;10.02;64.19;101388.09;146605;622;46010;-69
2022/02/28 10:34:26;;;;;;;;;18.00;16.75;;;;;10.04;63.25;101387.41;146603;572;46012;-69
2022/02/28 10:37:18;;;;;;;;;19.00;18.00;;;;;10.08;63.14;101381.59;146605;590;47010;-69
2022/02/28 10:40:11;;;;;;;;;18.75;17.75;;;;;10.12;63.61;101380.09;146603;645;46012;-69
2022/02/28 10:43:03;;;;;;;;;22.50;18.75;;;;;10.15;62.48;101386.37;146605;565;47010;-69
2022/02/28 10:45:56;;;;;;;;;22.25;19.25;;;;;10.21;61.97;101370.31;146606;593;46033;-69
2022/02/28 10:49:15;;;;;;;;;22.50;21.25;;;;;10.36;60.88;101385.97;146608;593;46020;-69
2022/02/28 10:52:17;;;;;;;;;22.75;19.75;;;;;10.53;60.95;101379.22;146601;620;46912;-69
2022/02/28 10:55:09;;;;;;;;;24.25;21.75;;;;;10.69;60.12;101381.09;146601;584;46020;-69
2022/02/28 10:58:24;;;;;;;;;25.00;22.50;;;;;10.73;59.28;101373.56;146599;600;47012;-69
2022/02/28 11:01:16;;;;;;;;;18.75;15.50;;;;;10.68;58.82;101372.37;146604;571;47010;-70
2022/02/28 11:04:08;;;;;;;;;11.75;9.50;;;;;10.61;55.96;101365.94;146607;564;46012;-70
2022/02/28 11:07:00;;;;;;;;;16.50;14.50;;;;;10.54;57.45;101379.34;146614;573;45041;-68
2022/02/28 11:09:52;;;;;;;;;10.75;10.50;;;;;10.51;57.17;101373.06;146606;569;46016;-68
2022/02/28 11:12:45;;;;;;;;;10.75;10.75;;;;;10.53;58.36;101372.37;146609;618;46010;-68
2022/02/28 11:15:37;;;;;;;;;18.75;15.50;;;;;10.59;58.17;101366.63;146603;600;46016;-70
2022/02/28 11:18:29;;;;;;;;;10.00;9.50;;;;;10.59;57.26;101372.75;146607;612;46010;-69
2022/02/28 11:21:21;;;;;;;;;18.25;15.25;;;;;10.59;56.77;101369.22;146611;645;46012;-70
2022/02/28 11:24:13;;;;;;;;;15.50;15.00;;;;;10.53;55.60;101380.16;146602;569;46020;-69
2022/02/28 11:27:06;;;;;;;;;12.75;11.25;;;;;10.44;54.67;101381.28;146603;586;47014;-68
2022/02/28 11:30:22;;;;;;;;;14.00;14.00;;;;;10.34;56.64;101367.75;146607;574;46010;-69
2022/02/28 11:33:18;;;;;;;;;12.75;12.75;;;;;10.30;57.70;101370.91;146603;600;46035;-68
2022/02/28 11:36:11;;;;;;;;;14.50;13.50;;;;;10.33;58.43;101370.22;146605;576;46010;-69
2022/02/28 11:39:14;;;;;;;;;10.25;9.00;;;;;10.38;58.77;101368.81;146602;582;47012;-69
2022/02/28 11:42:09;;;;;;;;;19.00;18.00;;;;;10.42;59.00;101364.72;146617;611;46010;-69
2022/02/28 11:45:02;;;;;;;;;10.25;10.25;;;;;10.45;58.97;101364.91;146605;650;46012;-68
2022/02/28 11:48:34;;;;;;;;;15.25;14.50;;;;;10.45;58.23;101360.62;146605;620;47010;-68
2022/02/28 11:51:35;;;;;;;;;37.00;30.75;;;;;10.39;57.33;101363.72;146601;665;47012;-68
2022/02/28 11:54:31;;;;;;;;;13.00;12.00;;;;;10.34;57.94;101364.22;146603;578;46020;-69
2022/02/28 11:57:53;;;;;;;;;17.00;13.75;;;;;9.76;58.29;101256.94;146603;597;46016;-68
2022/02/28 12:01:15;;;;;;;;;18.50;18.00;;;;;9.67;54.72;101260.72;146608;565;46020;-68
2022/02/28 12:04:20;;;;;;;;;15.50;15.50;;;;;10.08;54.98;101368.66;146638;686;46018;-69
2022/02/28 12:07:29;;;;;;;;;17.00;15.75;;;;;9.85;57.06;101371.47;146642;571;46014;-69
2022/02/28 12:10:21;;;;;;;;;18.00;17.00;;;;;9.62;58.26;101365.69;146635;628;46012;-68
2022/02/28 12:13:14;;;;;;;;;12.50;11.50;;;;;9.43;58.84;101371.34;146642;585;45021;-69
2022/02/28 12:20:22;;;;;;;;;28.50;27.75;;;;;8.19;59.81;101181.09;146639;680;46020;-69
2022/02/28 12:23:16;;;;;;;;;17.50;16.00;;;;;9.26;60.51;101377.13;146638;574;46014;-70
2022/02/28 12:26:10;;;;;;;;;17.00;17.00;;;;;9.20;61.21;101381.88;146634;629;46020;-70
2022/02/28 12:29:02;;;;;;;;;15.25;13.75;;;;;8.52;62.51;101272.97;146638;589;46014;-69
2022/02/28 12:31:55;;;;;;;;;13.50;12.00;;;;;9.10;62.66;101382.97;146641;602;46020;-70
2022/02/28 12:35:00;;;;;;;;;16.00;15.00;;;;;9.01;62.45;101365.13;146637;591;46016;-69
2022/02/28 12:37:52;;;;;;;;;19.75;18.00;;;;;9.04;62.70;101379.97;146641;578;46010;-70
2022/02/28 12:40:51;;;;;;;;;23.25;22.75;;;;;8.93;62.87;101381.78;146632;609;46016;-70
2022/02/28 12:43:44;;;;;;;;;20.75;18.75;;;;;8.88;64.12;101382.25;146640;629;46021;-69
2022/02/28 12:46:41;;;;;;;;;40.75;34.00;;;;;8.17;64.46;101271.41;146641;612;46030;-69
2022/02/28 12:49:35;;;;;;;;;39.00;33.50;;;;;8.85;64.58;101379.47;146643;579;46021;-70
2022/02/28 12:52:27;;;;;;;;;26.75;26.50;;;;;8.82;64.09;101387.06;146639;608;45915;-69
2022/02/28 12:55:20;;;;;;;;;22.25;22.25;;;;;8.82;65.74;101384.47;146636;613;46010;-69
2022/02/28 12:58:21;;;;;;;;;20.25;19.25;;;;;8.78;65.36;101383.31;146639;570;46017;-69
2022/02/28 13:01:22;;;;;;;;;21.25;18.00;;;;;8.28;66.89;101313.50;146631;581;46020;-70
2022/02/28 13:04:15;;;;;;;;;6.25;6.25;;;;;8.55;66.75;101394.66;146610;604;46035;-69
2022/02/28 13:07:17;;;;;;;;;9.75;8.00;;;;;8.43;66.87;101378.31;146615;581;46010;-70
2022/02/28 13:10:15;;;;;;;;;10.75;9.75;;;;;8.29;68.08;101388.53;146610;618;46033;-69
2022/02/28 13:13:07;;;;;;;;;11.25;9.00;;;;;8.21;69.16;101400.00;146615;585;46020;-69
2022/02/28 13:16:04;;;;;;;;;13.50;10.75;;;;;8.09;69.96;101392.28;146612;597;46026;-69
2022/02/28 13:19:26;;;;;;;;;9.00;7.50;;;;;8.01;70.80;101393.44;146606;565;47014;-69
2022/02/28 13:22:24;;;;;;;;;14.25;13.00;;;;;7.91;71.66;101392.63;146613;601;45912;-68
2022/02/28 13:25:17;;;;;;;;;11.25;9.75;;;;;7.87;71.97;101397.56;146601;616;46010;-69
2022/02/28 13:28:09;;;;;;;;;12.00;10.75;;;;;7.86;72.36;101397.47;146613;618;46915;-68
2022/02/28 13:31:01;;;;;;;;;12.00;10.00;;;;;7.81;73.34;101391.97;146607;563;46010;-69
2022/02/28 13:33:54;;;;;;;;;12.00;11.50;;;;;7.79;74.12;101383.22;146599;593;46914;-69
2022/02/28 13:36:57;;;;;;;;;18.75;18.50;;;;;7.81;73.05;101386.78;146608;606;47014;-69
2022/02/28 13:39:49;;;;;;;;;13.25;13.25;;;;;7.83;71.92;101384.34;146602;688;47012;-71
2022/02/28 13:42:46;;;;;;;;;13.00;11.75;;;;;7.86;72.63;101392.31;146608;634;46020;-70
2022/02/28 13:45:42;;;;;;;;;12.75;11.50;;;;;7.86;72.56;101397.47;146602;631;47012;-69
2022/02/28 13:48:36;;;;;;;;;10.50;10.50;;;;;7.83;74.96;101400.72;146613;592;46021;-69